Time;durP1;ratioP1;P1;durP2;ratioP2;P2;SDS_P1;SDS_P2;PMS_P1;PMS_P2;Temp;Humidity;BMP_temperature;BMP_pressure;BME280_temperature;BME280_humidity;BME280_pressure;Samples;Min_cycle;Max_cycle;Signal;HPM_P1;HPM_P2
2021/10/01 00:01:16;;;;;;;1.20;0.80;;;;;;;;;;5027483;28;20516;-58
2021/10/01 00:03:43;;;;;;;1.20;0.90;;;;;;;;;;5042092;28;20048;-58
2021/10/01 00:06:10;;;;;;;1.38;0.98;;;;;;;;;;5027497;28;20505;-57
2021/10/01 00:08:36;;;;;;;1.50;1.00;;;;;;;;;;5027276;28;20025;-57
2021/10/01 00:11:02;;;;;;;1.15;0.75;;;;;;;;;;5027290;28;20029;-57
2021/10/01 00:13:28;;;;;;;2.25;0.93;;;;;;;;;;5037740;28;20195;-57
2021/10/01 00:15:54;;;;;;;2.47;1.02;;;;;;;;;;5047295;28;20029;-58
2021/10/01 00:18:21;;;;;;;2.05;0.95;;;;;;;;;;5047389;28;20460;-58
2021/10/01 00:20:47;;;;;;;4.35;1.15;;;;;;;;;;5034420;28;20386;-57
2021/10/01 00:23:13;;;;;;;1.20;0.80;;;;;;;;;;5042618;28;20088;-57
2021/10/01 00:25:39;;;;;;;1.55;1.10;;;;;;;;;;5026601;28;20496;-57
2021/10/01 00:28:05;;;;;;;2.15;1.00;;;;;;;;;;5027215;28;20021;-57
2021/10/01 00:30:31;;;;;;;1.80;1.13;;;;;;;;;;5026860;28;20053;-58
2021/10/01 00:32:58;;;;;;;1.50;1.10;;;;;;;;;;5026285;28;20469;-58
2021/10/01 00:35:25;;;;;;;1.17;0.73;;;;;;;;;;5026703;28;20053;-57
2021/10/01 00:37:51;;;;;;;2.03;1.20;;;;;;;;;;5028048;28;20060;-58
2021/10/01 00:40:18;;;;;;;1.80;0.80;;;;;;;;;;5043162;28;20059;-58
2021/10/01 00:42:45;;;;;;;2.50;1.17;;;;;;;;;;5027375;28;20044;-57
2021/10/01 00:45:11;;;;;;;1.85;0.93;;;;;;;;;;5027246;28;20071;-57
2021/10/01 00:47:38;;;;;;;3.25;1.27;;;;;;;;;;5026554;28;20032;-57
2021/10/01 00:50:04;;;;;;;1.40;0.88;;;;;;;;;;5027556;28;20057;-58
2021/10/01 00:52:31;;;;;;;1.60;0.90;;;;;;;;;;5033744;28;20147;-58
2021/10/01 00:54:59;;;;;;;2.20;1.13;;;;;;;;;;5047139;28;20055;-58
2021/10/01 00:57:25;;;;;;;1.27;0.90;;;;;;;;;;5047936;28;20095;-58
2021/10/01 00:59:51;;;;;;;1.40;0.95;;;;;;;;;;5048872;28;20057;-58
2021/10/01 01:02:17;;;;;;;4.05;0.80;;;;;;;;;;5047931;28;20037;-58
2021/10/01 01:04:44;;;;;;;2.10;0.93;;;;;;;;;;5047019;28;20032;-58
2021/10/01 01:07:31;;;;;;;1.25;0.70;;;;;;;;;;5048417;28;20029;-58
2021/10/01 01:10:03;;;;;;;1.83;1.08;;;;;;;;;;5048357;28;20024;-58
2021/10/01 01:12:49;;;;;;;1.10;0.88;;;;;;;;;;5047837;28;20526;-58
2021/10/01 01:15:21;;;;;;;1.42;0.70;;;;;;;;;;5047878;28;20021;-58
2021/10/01 01:17:53;;;;;;;1.75;1.02;;;;;;;;;;5048522;28;20036;-58
2021/10/01 01:20:24;;;;;;;2.17;1.00;;;;;;;;;;5048671;28;20519;-58
2021/10/01 01:22:50;;;;;;;1.85;1.05;;;;;;;;;;5048227;28;20086;-58
2021/10/01 01:25:16;;;;;;;2.00;1.13;;;;;;;;;;5047881;28;20341;-58
2021/10/01 01:28:21;;;;;;;1.75;0.90;;;;;;;;;;5047276;28;20056;-58
2021/10/01 01:30:50;;;;;;;1.70;1.10;;;;;;;;;;5065483;28;20032;-58
2021/10/01 01:33:18;;;;;;;1.88;0.95;;;;;;;;;;5064732;28;20131;-58
2021/10/01 01:35:46;;;;;;;1.83;0.90;;;;;;;;;;5055504;28;20176;-58
2021/10/01 01:38:18;;;;;;;1.80;1.13;;;;;;;;;;5047510;28;20038;-58
2021/10/01 01:40:46;;;;;;;1.10;0.90;;;;;;;;;;5033299;28;20095;-58
2021/10/01 01:43:12;;;;;;;0.82;0.82;;;;;;;;;;5027324;28;20025;-58
2021/10/01 01:45:40;;;;;;;1.35;0.80;;;;;;;;;;5026235;28;20079;-58
2021/10/01 01:48:08;;;;;;;1.52;1.00;;;;;;;;;;5027134;28;20022;-58
2021/10/01 01:50:34;;;;;;;0.80;0.80;;;;;;;;;;5026889;28;20032;-58
2021/10/01 01:53:02;;;;;;;1.67;0.80;;;;;;;;;;5028939;28;20021;-58
2021/10/01 01:55:28;;;;;;;1.08;0.80;;;;;;;;;;5026961;28;20025;-58
2021/10/01 01:57:55;;;;;;;1.42;1.02;;;;;;;;;;5042221;28;20488;-58
2021/10/01 02:00:21;;;;;;;2.45;1.13;;;;;;;;;;5027535;28;20539;-58
2021/10/01 02:02:48;;;;;;;1.75;0.93;;;;;;;;;;5026412;28;20021;-58
2021/10/01 02:05:14;;;;;;;1.75;0.88;;;;;;;;;;5027036;28;20437;-58
2021/10/01 02:07:41;;;;;;;1.23;0.80;;;;;;;;;;5026922;28;20104;-58
2021/10/01 02:10:08;;;;;;;1.52;0.88;;;;;;;;;;5027127;28;20100;-58
2021/10/01 02:12:34;;;;;;;1.00;0.80;;;;;;;;;;5026553;28;20029;-58
2021/10/01 02:15:01;;;;;;;1.10;1.00;;;;;;;;;;5027143;28;20033;-58
2021/10/01 02:17:29;;;;;;;3.42;1.00;;;;;;;;;;5026405;28;20091;-58
2021/10/01 02:19:55;;;;;;;1.65;0.80;;;;;;;;;;5026850;28;20037;-58
2021/10/01 02:22:22;;;;;;;1.40;0.73;;;;;;;;;;5027407;28;20113;-58
2021/10/01 02:24:48;;;;;;;1.95;0.80;;;;;;;;;;5027428;28;20044;-58
2021/10/01 02:27:24;;;;;;;1.30;0.95;;;;;;;;;;5026648;28;20025;-58
2021/10/01 02:29:59;;;;;;;2.08;0.90;;;;;;;;;;5027402;28;20025;-58
2021/10/01 02:32:31;;;;;;;1.10;0.80;;;;;;;;;;5026370;28;20112;-58
2021/10/01 02:34:57;;;;;;;1.20;0.90;;;;;;;;;;5026581;28;20112;-58
2021/10/01 02:37:24;;;;;;;1.10;0.85;;;;;;;;;;5026266;28;20080;-58
2021/10/01 02:39:51;;;;;;;1.48;0.93;;;;;;;;;;5027031;28;20494;-58
2021/10/01 02:42:18;;;;;;;1.42;0.70;;;;;;;;;;5026816;28;20083;-58
2021/10/01 02:44:46;;;;;;;1.25;0.80;;;;;;;;;;5026122;28;20588;-58
2021/10/01 02:47:12;;;;;;;1.48;0.80;;;;;;;;;;5024253;28;20443;-58
2021/10/01 02:49:40;;;;;;;1.27;0.80;;;;;;;;;;5025184;28;20029;-58
2021/10/01 02:52:12;;;;;;;1.20;0.77;;;;;;;;;;5025965;28;20026;-57
2021/10/01 02:55:02;;;;;;;1.27;0.80;;;;;;;;;;5025748;28;20056;-58
2021/10/01 02:57:32;;;;;;;2.08;1.10;;;;;;;;;;5027591;28;20541;-58
2021/10/01 03:00:02;;;;;;;2.38;0.90;;;;;;;;;;5026364;28;20033;-58
2021/10/01 03:02:28;;;;;;;3.28;1.35;;;;;;;;;;5025135;28;20535;-58
2021/10/01 03:04:55;;;;;;;1.45;1.00;;;;;;;;;;5026365;28;20029;-58
2021/10/01 03:07:23;;;;;;;2.20;1.13;;;;;;;;;;5026975;28;20029;-58
2021/10/01 03:09:49;;;;;;;2.40;1.15;;;;;;;;;;5026741;28;20102;-58
2021/10/01 03:12:19;;;;;;;1.35;1.20;;;;;;;;;;5026431;28;20033;-58
2021/10/01 03:14:45;;;;;;;2.90;1.05;;;;;;;;;;5025928;28;20516;-58
2021/10/01 03:17:12;;;;;;;2.13;1.05;;;;;;;;;;5024893;28;20041;-58
2021/10/01 03:19:38;;;;;;;2.60;0.95;;;;;;;;;;5025895;28;20396;-58
2021/10/01 03:22:05;;;;;;;1.40;1.10;;;;;;;;;;5026467;28;20040;-58
2021/10/01 03:24:31;;;;;;;1.65;1.20;;;;;;;;;;5025794;28;20037;-58
2021/10/01 03:26:58;;;;;;;3.22;1.27;;;;;;;;;;5026368;28;20029;-58
2021/10/01 03:29:24;;;;;;;3.35;1.63;;;;;;;;;;5026329;28;20017;-58
2021/10/01 03:31:50;;;;;;;1.67;1.08;;;;;;;;;;5026305;28;20037;-58
2021/10/01 03:34:17;;;;;;;1.75;1.10;;;;;;;;;;5026173;28;20049;-58
2021/10/01 03:36:44;;;;;;;1.95;1.08;;;;;;;;;;5025600;28;20040;-58
2021/10/01 03:39:10;;;;;;;1.75;1.02;;;;;;;;;;5026090;28;20096;-58
2021/10/01 03:41:37;;;;;;;1.55;1.00;;;;;;;;;;5026087;28;20397;-58
2021/10/01 03:44:03;;;;;;;1.77;0.90;;;;;;;;;;5026243;28;20022;-59
2021/10/01 03:46:29;;;;;;;1.80;1.02;;;;;;;;;;5025619;28;20428;-58
2021/10/01 03:48:56;;;;;;;1.05;0.90;;;;;;;;;;5026198;28;20466;-58
2021/10/01 03:51:25;;;;;;;1.67;0.98;;;;;;;;;;5026586;28;20037;-58
2021/10/01 03:53:54;;;;;;;1.73;1.00;;;;;;;;;;5026361;28;20100;-58
2021/10/01 03:56:20;;;;;;;1.58;1.00;;;;;;;;;;5025779;28;20033;-58
2021/10/01 03:58:47;;;;;;;1.85;1.10;;;;;;;;;;5025972;28;20063;-58
2021/10/01 04:01:14;;;;;;;0.77;0.70;;;;;;;;;;5025569;28;20503;-58
2021/10/01 04:03:40;;;;;;;1.85;0.93;;;;;;;;;;5025326;28;20060;-58
2021/10/01 04:06:07;;;;;;;2.28;1.10;;;;;;;;;;5025658;28;20079;-58
2021/10/01 04:08:33;;;;;;;1.63;1.02;;;;;;;;;;5026531;28;20028;-58
2021/10/01 04:10:59;;;;;;;1.85;0.93;;;;;;;;;;5029276;28;20481;-58
2021/10/01 04:13:25;;;;;;;1.02;0.77;;;;;;;;;;5029252;28;20459;-58
2021/10/01 04:15:51;;;;;;;1.83;0.80;;;;;;;;;;5029940;28;20108;-58
2021/10/01 04:18:17;;;;;;;1.15;0.90;;;;;;;;;;5029628;28;20362;-58
2021/10/01 04:20:45;;;;;;;0.60;0.60;;;;;;;;;;5028914;28;20033;-58
2021/10/01 04:23:12;;;;;;;0.70;0.70;;;;;;;;;;5029430;28;20053;-58
2021/10/01 04:25:38;;;;;;;0.98;0.90;;;;;;;;;;5028926;28;20026;-58
2021/10/01 04:28:07;;;;;;;1.73;1.00;;;;;;;;;;5029039;28;20026;-58
2021/10/01 04:30:39;;;;;;;1.17;0.88;;;;;;;;;;5027355;28;20030;-58
2021/10/01 04:33:13;;;;;;;1.50;0.88;;;;;;;;;;5029101;28;20025;-58
2021/10/01 04:35:40;;;;;;;1.98;1.00;;;;;;;;;;5027412;28;20112;-58
2021/10/01 04:38:06;;;;;;;1.50;0.90;;;;;;;;;;5029075;28;20029;-58
2021/10/01 04:40:33;;;;;;;1.08;0.80;;;;;;;;;;5028970;28;20036;-58
2021/10/01 04:42:59;;;;;;;1.17;0.80;;;;;;;;;;5026694;28;20033;-58
2021/10/01 04:45:25;;;;;;;2.17;1.10;;;;;;;;;;5027522;28;20503;-58
2021/10/01 04:47:51;;;;;;;1.92;0.70;;;;;;;;;;5031800;28;20021;-58
2021/10/01 04:50:18;;;;;;;1.42;0.80;;;;;;;;;;5048803;28;20648;-58
2021/10/01 04:52:44;;;;;;;1.10;0.75;;;;;;;;;;5043724;28;20032;-58
2021/10/01 04:55:10;;;;;;;1.55;0.90;;;;;;;;;;5028745;28;20416;-58
2021/10/01 04:57:36;;;;;;;1.75;0.90;;;;;;;;;;5028291;28;20058;-58
2021/10/01 05:00:03;;;;;;;1.20;0.80;;;;;;;;;;5028202;28;20029;-58
2021/10/01 05:02:29;;;;;;;1.15;0.80;;;;;;;;;;5027724;28;20029;-58
2021/10/01 05:04:57;;;;;;;1.35;0.77;;;;;;;;;;5028493;28;20401;-58
2021/10/01 05:07:23;;;;;;;1.02;0.80;;;;;;;;;;5028274;28;20408;-58
2021/10/01 05:09:52;;;;;;;0.68;0.68;;;;;;;;;;5028089;28;20057;-58
2021/10/01 05:12:18;;;;;;;1.88;0.90;;;;;;;;;;5028565;28;20370;-58
2021/10/01 05:14:44;;;;;;;1.83;0.80;;;;;;;;;;5028241;28;20544;-58
2021/10/01 05:17:10;;;;;;;1.42;0.80;;;;;;;;;;5028279;28;20619;-58
2021/10/01 05:19:36;;;;;;;1.85;0.93;;;;;;;;;;5027396;28;20067;-58
2021/10/01 05:22:02;;;;;;;0.77;0.77;;;;;;;;;;5028191;28;20032;-58
2021/10/01 05:24:28;;;;;;;0.93;0.80;;;;;;;;;;5027755;28;20082;-58
2021/10/01 05:26:57;;;;;;;1.52;0.95;;;;;;;;;;5027978;28;20041;-58
2021/10/01 05:29:23;;;;;;;1.02;0.70;;;;;;;;;;5027881;28;20025;-58
2021/10/01 05:31:49;;;;;;;1.20;0.70;;;;;;;;;;5027569;28;20053;-58
2021/10/01 05:34:17;;;;;;;0.98;0.80;;;;;;;;;;5028246;28;20029;-58
2021/10/01 05:36:44;;;;;;;1.75;1.17;;;;;;;;;;5027289;28;20116;-59
2021/10/01 05:39:10;;;;;;;2.63;0.70;;;;;;;;;;5027619;28;20548;-59
2021/10/01 05:41:36;;;;;;;0.90;0.63;;;;;;;;;;5027064;28;20026;-58
2021/10/01 05:44:02;;;;;;;1.35;0.88;;;;;;;;;;5026774;28;20459;-58
2021/10/01 05:46:28;;;;;;;1.23;1.10;;;;;;;;;;5025689;28;20017;-58
2021/10/01 05:48:58;;;;;;;1.02;0.90;;;;;;;;;;5026169;28;20035;-59
2021/10/01 05:51:25;;;;;;;2.00;0.98;;;;;;;;;;5027714;28;20033;-58
2021/10/01 05:56:26;;;;;;;2.10;1.20;;;;;;;;;;5027411;28;20037;-58
2021/10/01 05:58:52;;;;;;;2.63;1.10;;;;;;;;;;5028133;28;20026;-59
2021/10/01 06:01:18;;;;;;;3.15;1.30;;;;;;;;;;5027745;28;20033;-58
2021/10/01 06:03:45;;;;;;;1.77;1.17;;;;;;;;;;5027229;28;20152;-59
2021/10/01 06:06:11;;;;;;;1.83;1.17;;;;;;;;;;5027367;28;20026;-59
2021/10/01 06:08:37;;;;;;;2.03;1.20;;;;;;;;;;5027000;28;20499;-58
2021/10/01 06:11:03;;;;;;;2.35;1.20;;;;;;;;;;5041388;28;20033;-58
2021/10/01 06:13:29;;;;;;;2.10;1.00;;;;;;;;;;5053864;28;20044;-58
2021/10/01 06:15:55;;;;;;;1.35;1.00;;;;;;;;;;5060216;28;20021;-58
2021/10/01 06:18:22;;;;;;;2.00;1.08;;;;;;;;;;5027063;28;20436;-58
2021/10/01 06:20:48;;;;;;;1.38;1.10;;;;;;;;;;5026868;28;20029;-58
2021/10/01 06:23:16;;;;;;;2.15;0.90;;;;;;;;;;5027688;28;20025;-58
2021/10/01 06:25:45;;;;;;;1.45;0.93;;;;;;;;;;5026639;28;20025;-58
2021/10/01 06:28:11;;;;;;;1.25;1.00;;;;;;;;;;5041995;28;20080;-58
2021/10/01 06:30:37;;;;;;;1.83;0.90;;;;;;;;;;5026698;28;20097;-58
2021/10/01 06:33:03;;;;;;;2.08;1.00;;;;;;;;;;5040348;28;20040;-59
2021/10/01 06:35:30;;;;;;;1.27;0.93;;;;;;;;;;5046214;28;20028;-59
2021/10/01 06:37:56;;;;;;;1.67;0.93;;;;;;;;;;5045733;28;20040;-59
2021/10/01 06:40:22;;;;;;;2.17;1.10;;;;;;;;;;5039255;28;20432;-59
2021/10/01 06:42:50;;;;;;;1.00;0.70;;;;;;;;;;5026396;28;20407;-59
2021/10/01 06:45:27;;;;;;;1.25;0.93;;;;;;;;;;5033275;28;20044;-59
2021/10/01 07:34:21;;;;;;;1.25;0.85;;;;;;;;;;5041578;28;20083;-58
2021/10/01 08:18:24;;;;;;;1.00;0.80;;;;;;;;;;5041661;28;20407;-59
2021/10/01 08:21:02;;;;;;;1.23;0.70;;;;;;;;;;5034945;28;20041;-59
2021/10/01 08:23:28;;;;;;;0.88;0.70;;;;;;;;;;5042221;28;20627;-59
2021/10/01 08:25:55;;;;;;;1.10;0.70;;;;;;;;;;5040515;28;20112;-58
2021/10/01 08:28:21;;;;;;;0.60;0.50;;;;;;;;;;5036318;28;20021;-59
2021/10/01 08:30:47;;;;;;;0.63;0.50;;;;;;;;;;5027920;28;20095;-59
2021/10/01 08:33:13;;;;;;;1.17;0.68;;;;;;;;;;5028450;28;20041;-59
2021/10/01 08:35:39;;;;;;;0.60;0.60;;;;;;;;;;5042491;28;20032;-59
2021/10/01 08:38:05;;;;;;;0.93;0.60;;;;;;;;;;5034986;28;20021;-59
2021/10/01 08:40:32;;;;;;;0.50;0.50;;;;;;;;;;5046507;28;20029;-59
2021/10/01 08:42:58;;;;;;;0.40;0.40;;;;;;;;;;5040800;28;20037;-59
2021/10/01 08:45:26;;;;;;;0.70;0.40;;;;;;;;;;5031978;28;20036;-59
2021/10/01 08:47:57;;;;;;;0.88;0.60;;;;;;;;;;5043938;28;20531;-58
2021/10/01 08:50:25;;;;;;;0.43;0.43;;;;;;;;;;5028223;28;20025;-59
2021/10/01 08:52:52;;;;;;;0.47;0.47;;;;;;;;;;5030007;28;20033;-59
2021/10/01 08:55:20;;;;;;;0.40;0.40;;;;;;;;;;5042283;28;20031;-59
2021/10/01 08:57:46;;;;;;;0.55;0.55;;;;;;;;;;5063732;28;20456;-59
2021/10/01 09:00:14;;;;;;;0.80;0.52;;;;;;;;;;5045431;28;20443;-58
2021/10/01 09:02:40;;;;;;;0.40;0.40;;;;;;;;;;5029116;28;20033;-59
2021/10/01 09:05:07;;;;;;;0.50;0.50;;;;;;;;;;5037647;28;20463;-59
2021/10/01 09:07:33;;;;;;;0.50;0.50;;;;;;;;;;5039805;28;20033;-59
2021/10/01 09:10:00;;;;;;;0.98;0.50;;;;;;;;;;5029828;28;20037;-58
2021/10/01 09:12:26;;;;;;;0.60;0.50;;;;;;;;;;5041961;28;20068;-59
2021/10/01 09:14:54;;;;;;;0.50;0.50;;;;;;;;;;5047032;28;20043;-59
2021/10/01 09:17:22;;;;;;;0.50;0.50;;;;;;;;;;5030239;28;20051;-59
2021/10/01 09:19:52;;;;;;;0.43;0.43;;;;;;;;;;5026468;28;20048;-58
2021/10/01 09:22:29;;;;;;;0.57;0.57;;;;;;;;;;5026570;28;20459;-59
2021/10/01 09:25:19;;;;;;;0.40;0.40;;;;;;;;;;5026265;28;20025;-58
2021/10/01 09:27:46;;;;;;;1.38;0.40;;;;;;;;;;5027910;28;20072;-59
2021/10/01 09:30:14;;;;;;;0.77;0.50;;;;;;;;;;5025805;28;20453;-59
2021/10/01 09:32:42;;;;;;;0.40;0.40;;;;;;;;;;5026701;28;20496;-59
2021/10/01 09:35:13;;;;;;;0.40;0.40;;;;;;;;;;5026523;28;20018;-59
2021/10/01 09:37:40;;;;;;;0.90;0.60;;;;;;;;;;5026445;28;20472;-59
2021/10/01 09:40:07;;;;;;;0.43;0.40;;;;;;;;;;5026235;28;20094;-59
2021/10/01 09:42:39;;;;;;;0.60;0.60;;;;;;;;;;5025716;28;20500;-59
2021/10/01 09:45:07;;;;;;;0.43;0.40;;;;;;;;;;5026073;28;20125;-58
2021/10/01 09:47:44;;;;;;;0.35;0.35;;;;;;;;;;5025596;28;20140;-58
2021/10/01 09:50:15;;;;;;;0.43;0.40;;;;;;;;;;5026782;28;20028;-59
2021/10/01 09:52:42;;;;;;;0.30;0.30;;;;;;;;;;5026416;28;20044;-59
2021/10/01 09:55:09;;;;;;;0.40;0.40;;;;;;;;;;5025960;28;20492;-58
2021/10/01 09:57:38;;;;;;;0.40;0.40;;;;;;;;;;5025409;28;20099;-59
2021/10/01 10:00:07;;;;;;;0.95;0.50;;;;;;;;;;5025852;28;20075;-59
2021/10/01 10:02:40;;;;;;;0.40;0.40;;;;;;;;;;5025301;28;20519;-58
2021/10/01 10:05:06;;;;;;;0.57;0.55;;;;;;;;;;5025815;28;20031;-59
2021/10/01 10:07:37;;;;;;;0.93;0.60;;;;;;;;;;5024852;28;20032;-59
2021/10/01 10:10:04;;;;;;;0.63;0.50;;;;;;;;;;5025819;28;20100;-59
2021/10/01 10:12:34;;;;;;;0.45;0.43;;;;;;;;;;5025152;28;20136;-59
2021/10/01 10:15:02;;;;;;;1.25;0.60;;;;;;;;;;5025906;28;20025;-59
2021/10/01 10:17:30;;;;;;;1.20;1.00;;;;;;;;;;5025198;28;20508;-59
2021/10/01 10:19:57;;;;;;;0.88;0.80;;;;;;;;;;5025491;28;20033;-59
2021/10/01 10:22:25;;;;;;;1.13;1.02;;;;;;;;;;5025518;28;20056;-59
2021/10/01 10:24:53;;;;;;;1.50;1.40;;;;;;;;;;5025533;28;20025;-59
2021/10/01 10:27:19;;;;;;;1.38;1.27;;;;;;;;;;5025319;28;20082;-59
2021/10/01 10:29:47;;;;;;;4.97;1.73;;;;;;;;;;5025108;28;20025;-59
2021/10/01 10:32:13;;;;;;;1.63;1.33;;;;;;;;;;5025940;28;20033;-60
2021/10/01 10:34:53;;;;;;;2.60;1.60;;;;;;;;;;5025683;28;20223;-59
2021/10/01 10:37:20;;;;;;;2.22;1.88;;;;;;;;;;5024191;28;20060;-60
2021/10/01 10:39:51;;;;;;;6.07;4.00;;;;;;;;;;5024814;28;20036;-60
2021/10/01 10:42:37;;;;;;;4.90;3.25;;;;;;;;;;5025130;28;20033;-60
2021/10/01 10:45:09;;;;;;;4.40;3.00;;;;;;;;;;5025138;28;20030;-59
2021/10/01 10:47:46;;;;;;;4.20;3.30;;;;;;;;;;5024666;28;20032;-60
2021/10/01 10:50:22;;;;;;;4.28;3.88;;;;;;;;;;5025730;28;20022;-60
2021/10/01 10:55:37;;;;;;;4.53;3.40;;;;;;;;;;5024848;28;20060;-59
2021/10/01 10:58:22;;;;;;;4.40;3.50;;;;;;;;;;5024664;28;20052;-59
2021/10/01 11:00:49;;;;;;;3.78;3.05;;;;;;;;;;5024717;28;20044;-59
2021/10/01 11:03:22;;;;;;;3.67;2.95;;;;;;;;;;5024863;28;20072;-60
2021/10/01 11:06:07;;;;;;;4.33;3.13;;;;;;;;;;5024763;28;20075;-59
2021/10/01 11:08:33;;;;;;;4.18;3.17;;;;;;;;;;5024761;28;20056;-60
2021/10/01 11:10:59;;;;;;;4.72;3.90;;;;;;;;;;5024935;28;20018;-60
2021/10/01 11:13:26;;;;;;;4.85;3.20;;;;;;;;;;5039783;28;20047;-61
2021/10/01 11:16:13;;;;;;;4.70;3.85;;;;;;;;;;5025135;28;20017;-60
2021/10/01 11:18:45;;;;;;;5.47;4.20;;;;;;;;;;5027400;28;20412;-60
2021/10/01 11:21:26;;;;;;;6.22;4.70;;;;;;;;;;5029269;28;20117;-60
2021/10/01 11:24:18;;;;;;;7.00;4.78;;;;;;;;;;5029064;28;20497;-59
2021/10/01 11:26:45;;;;;;;6.82;4.57;;;;;;;;;;5028808;28;20048;-62
2021/10/01 11:29:22;;;;;;;6.22;4.65;;;;;;;;;;5029664;28;20060;-60
2021/10/01 11:31:49;;;;;;;5.50;4.18;;;;;;;;;;5028591;28;20030;-60
2021/10/01 11:34:15;;;;;;;5.32;4.07;;;;;;;;;;5028924;28;20405;-60
2021/10/01 11:36:41;;;;;;;4.82;3.80;;;;;;;;;;5029055;28;20496;-61
2021/10/01 11:39:09;;;;;;;13.32;4.65;;;;;;;;;;5039188;28;20033;-62
2021/10/01 11:41:45;;;;;;;5.70;3.90;;;;;;;;;;5046156;28;20083;-60
2021/10/01 11:44:13;;;;;;;4.55;3.67;;;;;;;;;;5042688;28;20455;-60
2021/10/01 11:46:44;;;;;;;4.00;3.10;;;;;;;;;;5048378;28;20029;-60
2021/10/01 11:49:30;;;;;;;4.63;3.67;;;;;;;;;;5048050;28;20132;-59
2021/10/01 11:51:58;;;;;;;5.82;3.78;;;;;;;;;;5030612;28;20583;-60
2021/10/01 11:54:25;;;;;;;4.80;3.92;;;;;;;;;;5043190;28;20033;-61
2021/10/01 11:57:01;;;;;;;5.07;3.90;;;;;;;;;;5033059;28;20144;-61
2021/10/01 11:59:48;;;;;;;4.43;3.40;;;;;;;;;;5029434;28;20413;-60
2021/10/01 12:02:34;;;;;;;4.63;3.70;;;;;;;;;;5037559;28;20033;-62
2021/10/01 12:05:19;;;;;;;4.93;3.30;;;;;;;;;;5047206;28;20041;-61
2021/10/01 12:07:46;;;;;;;6.38;3.90;;;;;;;;;;5047886;28;20021;-62
2021/10/01 12:10:12;;;;;;;5.03;3.58;;;;;;;;;;5048676;28;20492;-62
2021/10/01 12:12:57;;;;;;;4.97;3.65;;;;;;;;;;5035903;28;20029;-60
2021/10/01 12:15:36;;;;;;;6.28;4.50;;;;;;;;;;5034869;28;20033;-61
2021/10/01 12:18:02;;;;;;;4.25;3.67;;;;;;;;;;5044803;28;20508;-61
2021/10/01 12:20:28;;;;;;;4.57;3.50;;;;;;;;;;5040696;28;20025;-62
2021/10/01 12:22:54;;;;;;;4.13;3.67;;;;;;;;;;5048753;28;20044;-60
2021/10/01 12:25:26;;;;;;;4.78;3.50;;;;;;;;;;5034039;28;20175;-61
2021/10/01 12:27:54;;;;;;;4.47;3.75;;;;;;;;;;5047163;28;20033;-61
2021/10/01 12:30:20;;;;;;;5.25;4.13;;;;;;;;;;5048058;28;20547;-62
2021/10/01 12:32:47;;;;;;;5.20;4.15;;;;;;;;;;5035631;28;20112;-61
2021/10/01 12:35:13;;;;;;;4.43;3.88;;;;;;;;;;5048730;28;20028;-61
2021/10/01 12:37:41;;;;;;;4.32;3.80;;;;;;;;;;5039082;28;20501;-62
2021/10/01 12:40:07;;;;;;;6.63;4.60;;;;;;;;;;5029187;28;20080;-62
2021/10/01 12:42:38;;;;;;;6.07;4.70;;;;;;;;;;5045747;28;21031;-61
2021/10/01 12:45:09;;;;;;;6.93;4.70;;;;;;;;;;5048574;28;20041;-61
2021/10/01 12:47:36;;;;;;;5.35;4.28;;;;;;;;;;5048208;28;20029;-60
2021/10/01 12:50:08;;;;;;;5.05;4.30;;;;;;;;;;5029358;28;20029;-61
2021/10/01 12:52:34;;;;;;;4.88;4.13;;;;;;;;;;5040057;28;20032;-62
2021/10/01 12:55:04;;;;;;;5.38;4.40;;;;;;;;;;5039794;28;20488;-61
2021/10/01 12:57:30;;;;;;;6.38;4.80;;;;;;;;;;5048147;28;20040;-60
2021/10/01 13:00:02;;;;;;;6.05;4.55;;;;;;;;;;5048529;28;20033;-61
2021/10/01 13:02:34;;;;;;;5.40;4.10;;;;;;;;;;5034144;28;20036;-61
2021/10/01 13:05:06;;;;;;;4.88;3.58;;;;;;;;;;5048346;28;20056;-60
2021/10/01 13:07:36;;;;;;;5.35;4.45;;;;;;;;;;5034289;28;20029;-61
2021/10/01 13:10:05;;;;;;;6.15;4.68;;;;;;;;;;5046634;28;20064;-61
2021/10/01 13:12:37;;;;;;;5.75;4.25;;;;;;;;;;5048014;28;20071;-61
2021/10/01 13:15:11;;;;;;;5.47;3.72;;;;;;;;;;5043609;28;20037;-61
2021/10/01 13:17:37;;;;;;;3.83;3.42;;;;;;;;;;5028684;28;20123;-61
2021/10/01 13:20:03;;;;;;;5.57;3.80;;;;;;;;;;5028264;28;20032;-61
2021/10/01 13:22:48;;;;;;;5.80;4.40;;;;;;;;;;5035578;28;20025;-60
2021/10/01 13:25:21;;;;;;;5.93;4.43;;;;;;;;;;5029452;28;20033;-61
2021/10/01 13:27:52;;;;;;;5.20;4.45;;;;;;;;;;5030684;28;20026;-61
2021/10/01 13:30:18;;;;;;;6.80;4.68;;;;;;;;;;5043063;28;20504;-61
2021/10/01 13:32:44;;;;;;;6.00;4.43;;;;;;;;;;5027773;28;20231;-62
2021/10/01 13:35:11;;;;;;;5.57;4.20;;;;;;;;;;5035033;28;20510;-62
2021/10/01 13:37:38;;;;;;;4.68;4.10;;;;;;;;;;5032572;28;20029;-61
2021/10/01 13:40:04;;;;;;;4.00;3.58;;;;;;;;;;5027660;28;20067;-61
2021/10/01 13:42:31;;;;;;;4.10;3.70;;;;;;;;;;5042118;28;20025;-62
2021/10/01 13:44:58;;;;;;;4.57;4.07;;;;;;;;;;5042318;28;20029;-61
2021/10/01 13:47:24;;;;;;;4.60;4.05;;;;;;;;;;5039108;28;20066;-61
2021/10/01 13:49:50;;;;;;;6.05;4.60;;;;;;;;;;5041680;28;20040;-61
2021/10/01 13:52:16;;;;;;;5.63;4.30;;;;;;;;;;5031780;28;20029;-61
2021/10/01 13:54:42;;;;;;;5.00;4.50;;;;;;;;;;5041145;28;20099;-61
2021/10/01 13:57:08;;;;;;;5.00;4.28;;;;;;;;;;5032251;28;20152;-60
2021/10/01 13:59:34;;;;;;;4.72;4.18;;;;;;;;;;5026486;28;20042;-61
2021/10/01 14:02:00;;;;;;;4.80;4.20;;;;;;;;;;5026438;28;20037;-61
2021/10/01 14:04:27;;;;;;;7.07;5.15;;;;;;;;;;5032251;28;20489;-61
2021/10/01 14:06:54;;;;;;;7.38;5.35;;;;;;;;;;5058976;28;20036;-61
2021/10/01 14:09:20;;;;;;;6.38;5.50;;;;;;;;;;5046782;28;20029;-62
2021/10/01 14:11:46;;;;;;;7.28;5.25;;;;;;;;;;5044365;28;20759;-61
2021/10/01 14:14:12;;;;;;;6.40;4.78;;;;;;;;;;5027651;28;20059;-61
2021/10/01 14:16:38;;;;;;;7.97;5.18;;;;;;;;;;5026165;28;20032;-61
2021/10/01 14:19:04;;;;;;;6.00;5.18;;;;;;;;;;5031801;28;20428;-62
2021/10/01 14:21:30;;;;;;;4.90;4.10;;;;;;;;;;5037480;28;20272;-61
2021/10/01 14:23:56;;;;;;;6.43;4.65;;;;;;;;;;5029014;28;20121;-60
2021/10/01 14:26:23;;;;;;;5.55;4.70;;;;;;;;;;5035498;28;20408;-60
2021/10/01 14:28:49;;;;;;;7.18;4.82;;;;;;;;;;5031468;28;20025;-62
2021/10/01 14:31:15;;;;;;;6.60;5.00;;;;;;;;;;5027857;28;20044;-61
2021/10/01 14:33:41;;;;;;;4.80;4.30;;;;;;;;;;5039799;28;20021;-62
2021/10/01 14:36:07;;;;;;;5.00;4.35;;;;;;;;;;5040006;28;20052;-61
2021/10/01 14:38:33;;;;;;;4.93;4.38;;;;;;;;;;5033619;28;20025;-62
2021/10/01 14:40:59;;;;;;;5.15;4.32;;;;;;;;;;5038719;28;20393;-62
2021/10/01 14:43:26;;;;;;;6.50;5.30;;;;;;;;;;5049859;28;20024;-60
2021/10/01 14:45:52;;;;;;;7.85;5.20;;;;;;;;;;5047467;28;20151;-60
2021/10/01 14:48:18;;;;;;;6.15;4.68;;;;;;;;;;5034189;28;20026;-63
2021/10/01 14:50:44;;;;;;;5.80;4.75;;;;;;;;;;5040694;28;20036;-62
2021/10/01 14:53:11;;;;;;;5.43;4.80;;;;;;;;;;5054657;28;20033;-62
2021/10/01 14:55:37;;;;;;;6.38;4.28;;;;;;;;;;5045618;28;20562;-62
2021/10/01 14:58:03;;;;;;;4.75;4.25;;;;;;;;;;5031762;28;21049;-62
2021/10/01 15:00:29;;;;;;;5.28;3.75;;;;;;;;;;5030124;28;20492;-62
2021/10/01 15:03:00;;;;;;;5.15;4.05;;;;;;;;;;5044845;28;20392;-61
2021/10/01 15:05:26;;;;;;;4.82;4.03;;;;;;;;;;5063448;28;20029;-62
2021/10/01 15:07:52;;;;;;;4.70;4.10;;;;;;;;;;5067395;28;20031;-62
2021/10/01 15:10:18;;;;;;;5.05;3.72;;;;;;;;;;5047702;28;21435;-62
2021/10/01 15:12:44;;;;;;;5.30;3.90;;;;;;;;;;5038247;28;20482;-61
2021/10/01 15:15:10;;;;;;;5.10;4.32;;;;;;;;;;5037845;28;20106;-62
2021/10/01 15:17:36;;;;;;;6.80;4.60;;;;;;;;;;5032354;28;20479;-61
2021/10/01 15:20:04;;;;;;;5.00;4.22;;;;;;;;;;5029933;28;20033;-62
2021/10/01 15:22:30;;;;;;;5.93;4.05;;;;;;;;;;5045700;28;20025;-61
2021/10/01 15:24:57;;;;;;;5.85;4.20;;;;;;;;;;5041658;28;20419;-61
2021/10/01 15:27:23;;;;;;;5.82;4.00;;;;;;;;;;5028810;28;20505;-62
2021/10/01 15:30:07;;;;;;;4.47;3.60;;;;;;;;;;5029599;28;20017;-61
2021/10/01 15:32:33;;;;;;;3.20;2.90;;;;;;;;;;5045550;28;20082;-61
2021/10/01 15:34:59;;;;;;;3.30;3.00;;;;;;;;;;5045964;28;20431;-61
2021/10/01 15:37:26;;;;;;;4.72;3.53;;;;;;;;;;5045560;28;20029;-60
2021/10/01 15:39:55;;;;;;;5.10;4.00;;;;;;;;;;5042113;28;20041;-60
2021/10/01 15:42:22;;;;;;;4.57;3.58;;;;;;;;;;5041114;28;20041;-62
2021/10/01 15:44:48;;;;;;;4.35;3.00;;;;;;;;;;5040097;28;20025;-60
2021/10/01 15:47:14;;;;;;;3.25;2.92;;;;;;;;;;5026355;28;20401;-61
2021/10/01 15:49:41;;;;;;;3.80;3.25;;;;;;;;;;5026256;28;20021;-61
2021/10/01 15:52:07;;;;;;;4.95;3.40;;;;;;;;;;5029709;28;20040;-62
2021/10/01 15:54:33;;;;;;;4.20;3.75;;;;;;;;;;5037505;28;20051;-61
2021/10/01 15:56:59;;;;;;;3.95;3.33;;;;;;;;;;5045728;28;20029;-61
2021/10/01 15:59:26;;;;;;;4.13;3.42;;;;;;;;;;5028155;28;20049;-61
2021/10/01 16:01:52;;;;;;;4.18;3.25;;;;;;;;;;5040639;28;20124;-62
2021/10/01 16:04:18;;;;;;;4.95;3.50;;;;;;;;;;5045435;28;20155;-61
2021/10/01 16:06:45;;;;;;;4.85;3.63;;;;;;;;;;5048935;28;20085;-59
2021/10/01 16:09:11;;;;;;;4.15;3.63;;;;;;;;;;5049037;28;20069;-61
2021/10/01 16:11:37;;;;;;;5.40;3.63;;;;;;;;;;5030365;28;20516;-61
2021/10/01 16:14:05;;;;;;;4.28;3.33;;;;;;;;;;5040081;28;20044;-62
2021/10/01 16:16:31;;;;;;;3.60;3.08;;;;;;;;;;5042785;28;20516;-62
2021/10/01 16:18:57;;;;;;;3.92;3.35;;;;;;;;;;5029061;28;20040;-62
2021/10/01 16:21:23;;;;;;;3.50;2.90;;;;;;;;;;5029632;28;20052;-62
2021/10/01 16:23:50;;;;;;;4.43;3.47;;;;;;;;;;5028766;28;20143;-62